createdAt,value
2018-02-02T00:00:33.547Z,10.57
2018-02-02T00:03:02.315Z,10.00
2018-02-02T00:05:29.929Z,8.97
2018-02-02T00:07:57.565Z,10.93
2018-02-02T00:10:25.998Z,10.87
2018-02-02T00:12:54.313Z,10.70
2018-02-02T00:15:22.108Z,13.43
2018-02-02T00:17:49.638Z,7.33
2018-02-02T00:20:17.134Z,9.43
2018-02-02T00:22:44.638Z,12.03
2018-02-02T00:25:12.182Z,11.07
2018-02-02T00:27:39.696Z,11.07
2018-02-02T00:30:07.401Z,10.93
2018-02-02T00:32:35.861Z,7.13
2018-02-02T00:35:03.732Z,9.93
2018-02-02T00:37:32.089Z,9.33
2018-02-02T00:40:00.840Z,7.60
2018-02-02T00:42:28.532Z,9.10
2018-02-02T00:44:56.988Z,10.60
2018-02-02T00:47:25.788Z,11.23
2018-02-02T00:49:53.451Z,9.70
2018-02-02T00:52:21.216Z,8.27
2018-02-02T00:54:49.201Z,9.67
2018-02-02T00:57:18.265Z,11.63
2018-02-02T00:59:45.787Z,9.60
2018-02-02T01:02:14.096Z,8.33
2018-02-02T01:04:41.608Z,9.40
2018-02-02T01:07:09.144Z,9.53
2018-02-02T01:09:36.756Z,8.90
2018-02-02T01:12:05.066Z,12.07
2018-02-02T01:14:33.627Z,9.70
2018-02-02T01:17:01.415Z,9.50
2018-02-02T01:19:30.399Z,9.23
2018-02-02T01:21:58.378Z,10.57
2018-02-02T01:24:26.157Z,10.57
2018-02-02T01:26:53.941Z,9.80
2018-02-02T01:29:21.558Z,12.50
2018-02-02T01:31:49.126Z,11.43
2018-02-02T01:34:16.669Z,13.33
2018-02-02T01:36:44.222Z,10.90
2018-02-02T01:39:12.545Z,13.90
2018-02-02T01:41:40.089Z,11.17
2018-02-02T01:44:07.645Z,9.67
2018-02-02T01:46:35.334Z,14.57
2018-02-02T01:49:03.960Z,13.10
2018-02-02T01:51:32.384Z,12.10
2018-02-02T01:54:00.241Z,14.40
2018-02-02T01:56:28.277Z,9.67
2018-02-02T01:58:56.768Z,9.43
2018-02-02T02:01:26.219Z,10.97
2018-02-02T02:03:54.145Z,15.60
2018-02-02T02:06:22.637Z,11.87
2018-02-02T02:08:50.823Z,11.97
2018-02-02T02:11:18.370Z,13.20
2018-02-02T02:13:45.916Z,8.70
2018-02-02T02:16:14.544Z,13.13
2018-02-02T02:18:42.072Z,15.67
2018-02-02T02:21:09.594Z,12.57
2018-02-02T02:23:37.617Z,12.90
2018-02-02T02:26:05.382Z,15.00
2018-02-02T02:28:33.659Z,12.87
2018-02-02T02:31:02.466Z,14.40
2018-02-02T02:33:31.349Z,13.87
2018-02-02T02:36:00.262Z,15.50
2018-02-02T02:38:28.130Z,14.43
2018-02-02T02:40:55.708Z,14.17
2018-02-02T02:43:23.631Z,14.40
2018-02-02T02:45:51.772Z,17.23
2018-02-02T02:48:19.464Z,11.53
2018-02-02T02:50:47.042Z,14.33
2018-02-02T02:53:14.562Z,16.57
2018-02-02T02:55:42.094Z,16.00
2018-02-02T02:58:09.656Z,12.87
2018-02-02T03:00:37.376Z,15.97
2018-02-02T03:03:05.645Z,12.30
2018-02-02T03:05:33.621Z,18.17
2018-02-02T03:08:01.970Z,19.47
2018-02-02T03:10:30.382Z,17.10
2018-02-02T03:13:01.105Z,15.67
2018-02-02T03:15:29.948Z,15.93
2018-02-02T03:17:57.967Z,12.97
2018-02-02T03:20:25.711Z,14.23
2018-02-02T03:22:53.730Z,12.23
2018-02-02T03:25:22.593Z,12.20
2018-02-02T03:27:50.584Z,12.23
2018-02-02T03:30:18.260Z,14.27
2018-02-02T03:32:45.782Z,15.50
2018-02-02T03:35:13.344Z,12.60
2018-02-02T03:37:40.868Z,9.40
2018-02-02T03:40:10.104Z,13.97
2018-02-02T03:42:38.473Z,13.37
2018-02-02T03:45:06.598Z,11.97
2018-02-02T03:47:35.241Z,11.67
2018-02-02T03:50:05.501Z,10.23
2018-02-02T03:52:34.894Z,12.60
2018-02-02T03:55:03.357Z,10.63
2018-02-02T03:57:32.208Z,11.07
2018-02-02T04:00:01.389Z,12.73
2018-02-02T04:02:30.338Z,14.47
2018-02-02T04:04:59.016Z,12.60
2018-02-02T04:07:26.759Z,14.80
2018-02-02T04:09:54.876Z,13.30
2018-02-02T04:12:24.584Z,15.47
2018-02-02T04:14:52.538Z,10.63
2018-02-02T04:17:20.116Z,12.27
2018-02-02T04:19:47.707Z,14.80
2018-02-02T04:22:16.034Z,17.10
2018-02-02T04:24:43.600Z,14.33
2018-02-02T04:27:11.705Z,16.60
2018-02-02T04:29:39.766Z,19.87
2018-02-02T04:32:07.588Z,16.10
2018-02-02T04:34:36.293Z,19.73
2018-02-02T04:37:05.078Z,20.53
2018-02-02T04:39:34.455Z,22.60
2018-02-02T04:42:03.615Z,18.13
2018-02-02T04:44:32.779Z,23.03
2018-02-02T04:47:01.749Z,20.47
2018-02-02T04:49:31.666Z,19.37
2018-02-02T04:52:00.878Z,23.40
2018-02-02T04:54:31.160Z,26.73
2018-02-02T04:57:01.688Z,21.37
2018-02-02T04:59:30.427Z,24.10
2018-02-02T05:02:01.603Z,25.57
2018-02-02T05:04:31.574Z,22.77
2018-02-02T05:07:01.741Z,23.13
2018-02-02T05:09:31.213Z,23.63
2018-02-02T05:12:03.804Z,23.83
2018-02-02T05:14:31.961Z,17.47
2018-02-02T05:17:00.292Z,25.27
2018-02-02T05:19:30.616Z,21.73
2018-02-02T05:21:59.358Z,27.07
2018-02-02T05:24:28.258Z,24.77
2018-02-02T05:26:56.437Z,22.63
2018-02-02T05:29:24.701Z,21.57
2018-02-02T05:31:53.507Z,21.20
2018-02-02T05:34:21.489Z,21.20
2018-02-02T05:36:49.984Z,23.10
2018-02-02T05:39:17.604Z,20.37
2018-02-02T05:41:45.193Z,25.43
2018-02-02T05:44:12.727Z,21.33
2018-02-02T05:46:40.276Z,22.47
2018-02-02T05:49:08.188Z,17.10
2018-02-02T05:51:36.428Z,18.73
2018-02-02T05:54:04.631Z,17.17
2018-02-02T05:56:33.702Z,21.00
2018-02-02T05:59:01.993Z,22.87
2018-02-02T06:01:31.634Z,16.30
2018-02-02T06:04:00.973Z,17.47
2018-02-02T06:06:30.300Z,19.43
2018-02-02T06:08:58.768Z,20.07
2018-02-02T06:11:26.496Z,23.00
2018-02-02T06:13:55.681Z,18.13
2018-02-02T06:16:23.600Z,16.43
2018-02-02T06:18:51.433Z,22.27
2018-02-02T06:21:19.032Z,16.20
2018-02-02T06:23:46.618Z,15.77
2018-02-02T06:26:14.164Z,20.87
2018-02-02T06:28:41.694Z,19.60
2018-02-02T06:31:09.697Z,15.47
2018-02-02T06:34:01.290Z,22.63
2018-02-02T06:36:31.071Z,18.87
2018-02-02T06:38:59.292Z,15.50
2018-02-02T06:41:28.076Z,15.47
2018-02-02T06:43:56.125Z,21.97
2018-02-02T06:46:25.148Z,18.33
2018-02-02T06:48:53.053Z,24.00
2018-02-02T06:51:22.310Z,16.67
2018-02-02T06:53:49.970Z,23.00
2018-02-02T06:56:17.513Z,18.77
2018-02-02T06:58:45.040Z,19.37
2018-02-02T07:01:12.562Z,19.17
2018-02-02T07:03:40.108Z,22.77
2018-02-02T07:06:07.738Z,19.50
2018-02-02T07:08:36.459Z,16.77
2018-02-02T07:11:04.929Z,21.93
2018-02-02T07:13:33.222Z,23.80
2018-02-02T07:16:01.701Z,18.27
2018-02-02T07:18:29.763Z,21.83
2018-02-02T07:20:57.638Z,27.40
2018-02-02T07:23:25.305Z,24.00
2018-02-02T07:25:53.153Z,23.87
2018-02-02T07:28:21.233Z,19.57
2018-02-02T07:30:48.778Z,26.90
2018-02-02T07:33:17.079Z,27.90
2018-02-02T07:35:44.630Z,27.00
2018-02-02T07:38:12.161Z,29.20
2018-02-02T07:40:40.509Z,34.27
2018-02-02T07:43:08.105Z,23.80
2018-02-02T07:45:36.646Z,25.93
2018-02-02T07:48:04.573Z,22.00
2018-02-02T07:50:32.764Z,20.80
2018-02-02T07:53:01.066Z,20.40
2018-02-02T07:55:28.731Z,19.57
2018-02-02T07:57:56.277Z,22.40
2018-02-02T08:00:24.428Z,24.97
2018-02-02T08:02:52.377Z,22.00
2018-02-02T08:05:21.142Z,19.00
2018-02-02T08:07:48.737Z,16.70
2018-02-02T08:10:16.366Z,20.17
2018-02-02T08:12:43.908Z,20.33
2018-02-02T08:15:11.432Z,18.07
2018-02-02T08:17:38.998Z,18.90
2018-02-02T08:20:06.970Z,16.80
2018-02-02T08:22:34.732Z,17.63
2018-02-02T08:25:03.927Z,18.03
2018-02-02T08:27:31.970Z,22.10
2018-02-02T08:30:00.221Z,15.57
2018-02-02T08:32:29.944Z,16.27
2018-02-02T08:34:57.580Z,21.33
2018-02-02T08:37:25.917Z,19.00
2018-02-02T08:39:53.449Z,14.47
2018-02-02T08:42:22.426Z,19.90
2018-02-02T08:44:50.802Z,13.07
2018-02-02T08:47:19.377Z,16.90
2018-02-02T08:49:46.980Z,15.43
2018-02-02T08:52:14.510Z,13.53
2018-02-02T08:54:42.065Z,17.80
2018-02-02T08:57:09.592Z,11.33
2018-02-02T08:59:37.661Z,12.70
2018-02-02T09:02:06.179Z,12.83
2018-02-02T09:04:33.899Z,10.17
2018-02-02T09:07:01.641Z,9.13
2018-02-02T09:09:29.911Z,10.80
2018-02-02T09:11:57.706Z,11.83
2018-02-02T09:14:25.705Z,11.50
2018-02-02T09:16:53.528Z,11.00
2018-02-02T09:19:21.274Z,11.17
2018-02-02T09:21:53.446Z,11.80
2018-02-02T09:24:21.152Z,12.17
2018-02-02T09:26:48.688Z,11.17
2018-02-02T09:29:16.209Z,13.23
2018-02-02T09:31:43.764Z,11.60
2018-02-02T09:34:11.294Z,13.37
2018-02-02T09:36:38.853Z,14.27
2018-02-02T09:39:06.500Z,12.93
2018-02-02T09:41:34.173Z,18.10
2018-02-02T09:44:01.850Z,16.43
2018-02-02T09:46:29.729Z,17.67
2018-02-02T09:48:58.433Z,13.77
2018-02-02T09:51:26.862Z,19.10
2018-02-02T09:53:54.691Z,19.40
2018-02-02T09:56:23.211Z,19.57
2018-02-02T09:58:50.979Z,18.73
2018-02-02T10:01:18.638Z,21.10
2018-02-02T10:03:47.069Z,24.93
2018-02-02T10:06:14.654Z,26.10
2018-02-02T10:08:42.220Z,20.10
2018-02-02T10:11:09.751Z,21.00
2018-02-02T10:13:37.303Z,20.70
2018-02-02T10:16:05.027Z,27.43
2018-02-02T10:18:32.655Z,24.67
2018-02-02T10:21:00.552Z,25.03
2018-02-02T10:23:28.316Z,26.00
2018-02-02T10:25:56.782Z,26.57
2018-02-02T10:28:24.339Z,22.67
2018-02-02T10:30:52.562Z,23.57
2018-02-02T10:33:20.301Z,21.10
2018-02-02T10:35:48.071Z,21.10
2018-02-02T10:38:15.598Z,20.07
2018-02-02T10:40:43.906Z,17.00
2018-02-02T10:43:11.446Z,21.47
2018-02-02T10:45:38.990Z,17.50
2018-02-02T10:48:07.387Z,21.13
2018-02-02T10:50:35.247Z,20.47
2018-02-02T10:53:03.032Z,16.63
2018-02-02T10:55:30.802Z,15.73
2018-02-02T10:57:58.534Z,18.43
2018-02-02T11:00:26.947Z,14.90
2018-02-02T11:03:00.750Z,15.57
2018-02-02T11:05:29.273Z,18.17
2018-02-02T11:07:58.533Z,12.47
2018-02-02T11:10:26.102Z,11.77
2018-02-02T11:12:53.656Z,13.33
2018-02-02T11:15:21.537Z,9.67
2018-02-02T11:17:49.416Z,12.03
2018-02-02T11:20:17.073Z,13.53
2018-02-02T11:22:44.631Z,13.40
2018-02-02T11:25:12.158Z,10.87
2018-02-02T11:27:39.677Z,13.00
2018-02-02T11:30:07.317Z,9.60
2018-02-02T11:32:34.950Z,9.43
2018-02-02T11:35:03.654Z,7.83
2018-02-02T11:37:32.729Z,13.27
2018-02-02T11:40:00.810Z,10.57
2018-02-02T11:42:28.682Z,9.90
2018-02-02T11:44:56.221Z,12.47
2018-02-02T11:47:23.833Z,6.47
2018-02-02T11:49:51.557Z,8.90
2018-02-02T11:52:19.206Z,9.57
2018-02-02T11:54:46.763Z,5.77
2018-02-02T11:57:14.302Z,4.70
2018-02-02T11:59:42.619Z,5.83
2018-02-02T12:02:10.153Z,4.17
2018-02-02T12:04:38.453Z,6.27
2018-02-02T12:07:06.361Z,3.37
2018-02-02T12:09:34.164Z,5.13
2018-02-02T12:12:01.839Z,4.23
2018-02-02T12:14:29.515Z,5.47
2018-02-02T12:16:57.062Z,5.60
2018-02-02T12:19:24.785Z,7.20
2018-02-02T12:25:08.985Z,7.23
2018-02-02T12:27:41.252Z,4.13
2018-02-02T12:30:22.053Z,5.07
2018-02-02T12:32:49.713Z,3.87
2018-02-02T12:35:32.538Z,4.07
2018-02-02T12:38:00.482Z,4.33
2018-02-02T12:40:28.356Z,4.73
2018-02-02T12:42:55.946Z,4.90
2018-02-02T12:45:23.488Z,6.77
2018-02-02T12:48:02.386Z,3.87
2018-02-02T12:50:42.562Z,5.30
2018-02-02T12:53:10.233Z,5.07
2018-02-02T12:55:37.754Z,4.27
2018-02-02T12:58:06.181Z,5.67
2018-02-02T13:00:33.807Z,4.87
2018-02-02T13:03:01.967Z,3.70
2018-02-02T13:05:30.007Z,3.53
2018-02-02T13:07:57.846Z,3.70
2018-02-02T13:10:25.527Z,2.60
2018-02-02T13:12:53.377Z,2.43
2018-02-02T13:15:21.679Z,3.40
2018-02-02T13:17:49.437Z,3.60
2018-02-02T13:20:17.322Z,3.03
2018-02-02T13:22:44.863Z,4.30
2018-02-02T13:25:12.534Z,3.53
2018-02-02T13:27:40.165Z,3.53
2018-02-02T13:30:07.708Z,3.33
2018-02-02T13:32:35.505Z,4.57
2018-02-02T13:35:03.262Z,3.60
2018-02-02T13:37:31.493Z,4.50
2018-02-02T13:39:59.131Z,2.93
2018-02-02T13:42:27.604Z,2.50
2018-02-02T13:44:55.253Z,3.60
2018-02-02T13:47:23.345Z,3.17
2018-02-02T13:49:50.993Z,2.70
2018-02-02T13:52:18.552Z,2.97
2018-02-02T13:54:46.094Z,3.00
2018-02-02T13:57:13.609Z,3.27
2018-02-02T13:59:41.141Z,3.73
2018-02-02T14:02:09.046Z,2.70
2018-02-02T14:04:38.412Z,4.13
2018-02-02T14:07:07.045Z,2.73
2018-02-02T14:09:35.599Z,3.07
2018-02-02T14:12:04.838Z,2.70
2018-02-02T14:14:32.524Z,3.50
2018-02-02T14:17:00.178Z,3.77
2018-02-02T14:19:28.049Z,6.77
2018-02-02T14:21:55.658Z,5.27
2018-02-02T14:24:23.985Z,6.60
2018-02-02T14:26:52.070Z,5.93
2018-02-02T14:29:19.818Z,4.33
2018-02-02T14:31:47.666Z,3.70
2018-02-02T14:34:15.262Z,4.63
2018-02-02T14:36:43.330Z,5.03
2018-02-02T14:39:11.552Z,6.10
2018-02-02T14:41:40.449Z,6.33
2018-02-02T14:44:08.366Z,4.67
2018-02-02T14:46:36.208Z,6.33
2018-02-02T14:49:04.131Z,5.80
2018-02-02T14:51:31.883Z,9.77
2018-02-02T14:53:59.826Z,6.50
2018-02-02T14:56:28.615Z,6.67
2018-02-02T14:58:56.485Z,5.97
2018-02-02T15:01:24.982Z,6.27
2018-02-02T15:03:52.930Z,5.83
2018-02-02T15:06:20.517Z,6.60
2018-02-02T15:08:48.077Z,5.80
2018-02-02T15:11:15.621Z,6.60
2018-02-02T15:13:43.254Z,7.57
2018-02-02T15:16:11.236Z,7.10
2018-02-02T15:18:38.765Z,9.57
2018-02-02T15:21:07.499Z,10.70
2018-02-02T15:23:36.020Z,12.13
2018-02-02T15:26:04.477Z,12.47
2018-02-02T15:28:32.325Z,13.50
2018-02-02T15:31:00.147Z,11.80
2018-02-02T15:33:28.810Z,13.40
2018-02-02T15:35:57.251Z,14.73
2018-02-02T15:38:24.849Z,11.87
2018-02-02T15:40:52.441Z,12.23
2018-02-02T15:43:21.775Z,12.57
2018-02-02T15:45:49.367Z,10.67
2018-02-02T15:48:16.905Z,12.63
2018-02-02T15:50:44.465Z,11.20
2018-02-02T15:53:11.974Z,9.03
2018-02-02T15:55:40.259Z,8.53
2018-02-02T15:58:08.607Z,10.27
2018-02-02T16:00:36.320Z,10.47
2018-02-02T16:03:04.005Z,11.97
2018-02-02T16:05:32.998Z,12.40
2018-02-02T16:08:00.572Z,12.47
2018-02-02T16:10:29.109Z,11.43
2018-02-02T16:12:57.937Z,16.13
2018-02-02T16:15:25.469Z,17.03
2018-02-02T16:17:53.176Z,17.20
2018-02-02T16:20:21.084Z,17.70
2018-02-02T16:22:49.953Z,15.00
2018-02-02T16:25:18.289Z,18.03
2018-02-02T16:27:45.864Z,15.60
2018-02-02T16:30:13.665Z,15.43
2018-02-02T16:32:41.962Z,14.10
2018-02-02T16:35:10.286Z,16.23
2018-02-02T16:37:38.171Z,16.87
2018-02-02T16:40:05.817Z,16.47
2018-02-02T16:42:33.461Z,19.10
2018-02-02T16:45:01.653Z,18.50
2018-02-02T16:47:29.979Z,21.13
2018-02-02T16:49:58.616Z,22.20
2018-02-02T16:52:26.172Z,20.60
2018-02-02T16:54:53.925Z,22.00
2018-02-02T16:57:21.584Z,23.90
2018-02-02T16:59:49.128Z,22.93
2018-02-02T17:02:16.661Z,22.70
2018-02-02T17:04:44.254Z,23.17
2018-02-02T17:07:11.781Z,26.67
2018-02-02T17:09:40.234Z,23.37
2018-02-02T17:12:07.974Z,21.40
2018-02-02T17:14:35.791Z,22.50
2018-02-02T17:17:03.668Z,23.73
2018-02-02T17:19:31.689Z,22.77
2018-02-02T17:22:00.126Z,22.40
2018-02-02T17:24:28.353Z,24.40
2018-02-02T17:26:56.353Z,25.27
2018-02-02T17:29:24.690Z,27.27
2018-02-02T17:31:52.540Z,26.63
2018-02-02T17:34:20.084Z,25.53
2018-02-02T17:36:47.624Z,27.23
2018-02-02T17:39:15.916Z,29.23
2018-02-02T17:41:44.283Z,27.73
2018-02-02T17:44:12.584Z,27.47
2018-02-02T17:46:40.134Z,31.77
2018-02-02T17:49:08.739Z,36.03
2018-02-02T17:51:36.476Z,33.17
2018-02-02T17:54:05.394Z,38.40
2018-02-02T17:56:33.815Z,32.67
2018-02-02T17:59:03.236Z,32.33
2018-02-02T18:01:37.891Z,39.47
2018-02-02T18:04:06.575Z,39.57
2018-02-02T18:06:34.934Z,36.67
2018-02-02T18:09:03.862Z,34.03
2018-02-02T18:11:42.587Z,38.67
2018-02-02T18:14:11.374Z,36.40
2018-02-02T18:16:39.240Z,36.63
2018-02-02T18:19:07.715Z,40.77
2018-02-02T18:24:30.893Z,37.23
2018-02-02T18:26:59.792Z,36.03
2018-02-02T18:29:27.361Z,41.43
2018-02-02T18:31:54.924Z,35.63
2018-02-02T18:34:22.446Z,37.03
2018-02-02T18:36:50.745Z,30.87
2018-02-02T18:39:19.140Z,34.60
2018-02-02T18:41:46.704Z,32.47
2018-02-02T18:44:14.261Z,30.17
2018-02-02T18:46:42.848Z,31.13
2018-02-02T18:49:11.679Z,28.97
2018-02-02T18:51:40.322Z,30.83
2018-02-02T18:54:08.072Z,35.10
2018-02-02T18:56:35.638Z,38.13
2018-02-02T18:59:03.501Z,41.93
2018-02-02T19:01:31.301Z,39.07
2018-02-02T19:03:59.900Z,43.13
2018-02-02T19:06:27.820Z,44.53
2018-02-02T19:08:55.443Z,42.73
2018-02-02T19:11:23.820Z,38.83
2018-02-02T19:13:51.408Z,38.30
2018-02-02T19:16:19.390Z,39.43
2018-02-02T19:18:46.930Z,48.83
2018-02-02T19:21:15.232Z,37.73
2018-02-02T19:23:42.879Z,38.17
2018-02-02T19:26:10.585Z,40.10
2018-02-02T19:28:38.128Z,37.27
2018-02-02T19:31:05.994Z,33.63
2018-02-02T19:33:42.494Z,34.47
2018-02-02T19:39:03.960Z,36.93
2018-02-02T19:41:32.997Z,40.80
2018-02-02T19:44:00.593Z,35.63
2018-02-02T19:46:28.414Z,39.03
2018-02-02T19:48:57.024Z,35.87
2018-02-02T19:51:26.174Z,38.60
2018-02-02T19:53:54.171Z,36.50
2018-02-02T19:56:21.712Z,36.00
2018-02-02T19:58:49.502Z,42.40
2018-02-02T20:01:18.276Z,42.70
2018-02-02T20:03:47.092Z,40.70
2018-02-02T20:06:15.959Z,40.23
2018-02-02T20:08:43.565Z,35.20
2018-02-02T20:11:11.089Z,34.70
2018-02-02T20:13:38.640Z,32.27
2018-02-02T20:16:06.515Z,35.33
2018-02-02T20:18:34.069Z,39.30
2018-02-02T20:21:01.930Z,45.60
2018-02-02T20:23:31.093Z,44.97
2018-02-02T20:25:58.995Z,36.13
2018-02-02T20:28:27.116Z,37.53
2018-02-02T20:30:56.143Z,37.37
2018-02-02T20:33:23.893Z,34.37
2018-02-02T20:35:52.010Z,34.50
2018-02-02T20:38:20.585Z,36.47
2018-02-02T20:40:48.760Z,33.50
2018-02-02T20:43:17.308Z,37.10
2018-02-02T20:45:44.880Z,41.20
2018-02-02T20:48:13.197Z,34.67
2018-02-02T20:50:40.728Z,34.63
2018-02-02T20:53:08.267Z,36.50
2018-02-02T20:55:36.552Z,36.37
2018-02-02T20:58:05.156Z,34.10
2018-02-02T21:00:33.463Z,31.83
2018-02-02T21:03:02.424Z,35.80
2018-02-02T21:05:30.213Z,36.87
2018-02-02T21:07:58.713Z,38.40
2018-02-02T21:10:27.127Z,36.00
2018-02-02T21:12:55.171Z,40.47
2018-02-02T21:15:24.762Z,37.07
2018-02-02T21:17:52.412Z,35.50
2018-02-02T21:20:19.942Z,36.17
2018-02-02T21:22:47.952Z,33.60
2018-02-02T21:25:16.309Z,35.53
2018-02-02T21:27:43.849Z,39.03
2018-02-02T21:30:11.395Z,41.67
2018-02-02T21:32:39.684Z,44.07
2018-02-02T21:35:07.212Z,38.10
2018-02-02T21:37:35.533Z,38.67
2018-02-02T21:40:04.017Z,41.37
2018-02-02T21:42:31.697Z,38.17
2018-02-02T21:44:59.872Z,43.17
2018-02-02T21:47:28.446Z,44.83
2018-02-02T21:49:57.226Z,42.27
2018-02-02T21:52:28.820Z,41.60
2018-02-02T21:54:58.541Z,46.00
2018-02-02T21:57:28.495Z,39.10
2018-02-02T21:59:56.914Z,38.27
2018-02-02T22:02:26.815Z,40.00
2018-02-02T22:04:56.988Z,43.00
2018-02-02T22:07:26.694Z,48.83
2018-02-02T22:09:56.199Z,40.37
2018-02-02T22:12:25.042Z,45.97
2018-02-02T22:14:53.827Z,38.90
2018-02-02T22:17:23.727Z,38.77
2018-02-02T22:19:53.349Z,40.57
2018-02-02T22:22:22.093Z,39.10
2018-02-02T22:24:50.775Z,41.50
2018-02-02T22:27:18.668Z,42.00
2018-02-02T22:29:46.579Z,38.63
2018-02-02T22:32:14.100Z,37.20
2018-02-02T22:34:42.425Z,37.57
2018-02-02T22:37:09.966Z,37.00
2018-02-02T22:39:37.476Z,32.00
2018-02-02T22:42:05.545Z,37.33
2018-02-02T22:44:33.579Z,38.63
2018-02-02T22:47:01.266Z,39.33
2018-02-02T22:49:31.199Z,40.60
2018-02-02T22:51:59.694Z,28.30
2018-02-02T22:54:29.650Z,30.10
2018-02-02T22:56:58.731Z,30.10
2018-02-02T22:59:27.308Z,28.93
2018-02-02T23:01:57.032Z,29.07
2018-02-02T23:04:27.632Z,24.27
2018-02-02T23:06:56.524Z,31.33
2018-02-02T23:09:25.046Z,28.73
2018-02-02T23:11:55.885Z,30.10
2018-02-02T23:14:25.090Z,31.70
2018-02-02T23:16:54.693Z,27.00
2018-02-02T23:19:23.470Z,27.20
2018-02-02T23:21:51.433Z,25.40
2018-02-02T23:24:20.835Z,25.70
2018-02-02T23:26:49.511Z,26.50
2018-02-02T23:29:17.286Z,25.93
2018-02-02T23:31:44.924Z,25.33
2018-02-02T23:34:13.227Z,28.97
2018-02-02T23:36:40.740Z,28.20
2018-02-02T23:39:08.305Z,26.17
2018-02-02T23:41:35.994Z,29.10
2018-02-02T23:44:03.685Z,23.67
2018-02-02T23:46:31.699Z,24.03
2018-02-02T23:48:59.965Z,28.60
2018-02-02T23:51:28.352Z,24.00
2018-02-02T23:53:57.955Z,23.37
2018-02-02T23:56:25.732Z,21.83
2018-02-02T23:58:53.742Z,23.97
